sensor_id;sensor_type;location;lat;lon;timestamp;temperature;humidity
19220;DHT22;9744;49.364;7.484;2022-10-31T00:00:43;14.60;99.90
19220;DHT22;9744;49.364;7.484;2022-10-31T00:03:10;14.60;99.90
19220;DHT22;9744;49.364;7.484;2022-10-31T00:05:42;14.60;99.90
19220;DHT22;9744;49.364;7.484;2022-10-31T00:08:09;14.60;99.90
19220;DHT22;9744;49.364;7.484;2022-10-31T00:10:38;14.60;99.90
19220;DHT22;9744;49.364;7.484;2022-10-31T00:13:06;14.50;99.90
19220;DHT22;9744;49.364;7.484;2022-10-31T00:15:33;14.50;99.90
19220;DHT22;9744;49.364;7.484;2022-10-31T00:18:00;14.40;99.90
19220;DHT22;9744;49.364;7.484;2022-10-31T00:20:27;14.40;99.90
19220;DHT22;9744;49.364;7.484;2022-10-31T00:22:59;14.40;99.90
19220;DHT22;9744;49.364;7.484;2022-10-31T00:25:27;14.40;99.90
19220;DHT22;9744;49.364;7.484;2022-10-31T00:27:56;14.30;99.90
19220;DHT22;9744;49.364;7.484;2022-10-31T00:30:23;14.30;99.90
19220;DHT22;9744;49.364;7.484;2022-10-31T00:32:50;14.30;99.90
19220;DHT22;9744;49.364;7.484;2022-10-31T00:35:17;14.30;99.90
19220;DHT22;9744;49.364;7.484;2022-10-31T00:37:45;15.00;99.90
19220;DHT22;9744;49.364;7.484;2022-10-31T00:40:15;14.20;99.90
19220;DHT22;9744;49.364;7.484;2022-10-31T00:42:42;14.10;99.90
19220;DHT22;9744;49.364;7.484;2022-10-31T00:45:10;14.00;99.90
19220;DHT22;9744;49.364;7.484;2022-10-31T00:47:37;14.00;99.90
19220;DHT22;9744;49.364;7.484;2022-10-31T00:50:05;13.90;99.90
19220;DHT22;9744;49.364;7.484;2022-10-31T00:52:33;13.90;99.90
19220;DHT22;9744;49.364;7.484;2022-10-31T00:55:00;13.90;99.90
19220;DHT22;9744;49.364;7.484;2022-10-31T00:57:30;13.90;99.90
19220;DHT22;9744;49.364;7.484;2022-10-31T00:59:57;13.90;99.90
19220;DHT22;9744;49.364;7.484;2022-10-31T01:02:24;13.90;99.90
19220;DHT22;9744;49.364;7.484;2022-10-31T01:04:51;13.80;99.90
19220;DHT22;9744;49.364;7.484;2022-10-31T01:07:20;13.80;99.90
19220;DHT22;9744;49.364;7.484;2022-10-31T01:09:47;13.80;99.90
19220;DHT22;9744;49.364;7.484;2022-10-31T01:12:15;13.80;99.90
19220;DHT22;9744;49.364;7.484;2022-10-31T01:14:44;13.80;99.90
19220;DHT22;9744;49.364;7.484;2022-10-31T01:17:12;13.90;99.90
19220;DHT22;9744;49.364;7.484;2022-10-31T01:19:40;13.90;99.90
19220;DHT22;9744;49.364;7.484;2022-10-31T01:22:07;14.00;99.90
19220;DHT22;9744;49.364;7.484;2022-10-31T01:24:34;13.90;99.90
19220;DHT22;9744;49.364;7.484;2022-10-31T01:27:02;14.00;99.90
19220;DHT22;9744;49.364;7.484;2022-10-31T01:29:33;14.00;99.90
19220;DHT22;9744;49.364;7.484;2022-10-31T01:32:01;14.00;99.90
19220;DHT22;9744;49.364;7.484;2022-10-31T01:34:31;14.00;99.90
19220;DHT22;9744;49.364;7.484;2022-10-31T01:36:58;14.00;99.90
19220;DHT22;9744;49.364;7.484;2022-10-31T01:39:25;14.00;99.90
19220;DHT22;9744;49.364;7.484;2022-10-31T01:41:54;14.00;99.90
19220;DHT22;9744;49.364;7.484;2022-10-31T01:44:54;14.00;99.90
19220;DHT22;9744;49.364;7.484;2022-10-31T01:47:30;14.00;99.90
19220;DHT22;9744;49.364;7.484;2022-10-31T01:50:01;14.10;99.90
19220;DHT22;9744;49.364;7.484;2022-10-31T01:52:31;14.10;99.90
19220;DHT22;9744;49.364;7.484;2022-10-31T01:55:01;14.10;99.90
19220;DHT22;9744;49.364;7.484;2022-10-31T01:57:31;14.10;99.90
19220;DHT22;9744;49.364;7.484;2022-10-31T02:00:08;14.00;99.90
19220;DHT22;9744;49.364;7.484;2022-10-31T02:02:41;14.10;99.90
19220;DHT22;9744;49.364;7.484;2022-10-31T02:05:11;14.10;99.90
19220;DHT22;9744;49.364;7.484;2022-10-31T02:07:43;14.10;99.90
19220;DHT22;9744;49.364;7.484;2022-10-31T02:10:12;14.10;99.90
19220;DHT22;9744;49.364;7.484;2022-10-31T02:12:40;14.10;99.90
19220;DHT22;9744;49.364;7.484;2022-10-31T02:15:09;14.00;99.90
19220;DHT22;9744;49.364;7.484;2022-10-31T02:17:37;13.90;99.90
19220;DHT22;9744;49.364;7.484;2022-10-31T02:20:13;14.00;99.90
19220;DHT22;9744;49.364;7.484;2022-10-31T02:23:01;14.00;99.90
19220;DHT22;9744;49.364;7.484;2022-10-31T02:25:47;14.10;99.90
19220;DHT22;9744;49.364;7.484;2022-10-31T02:28:33;14.00;99.90
19220;DHT22;9744;49.364;7.484;2022-10-31T02:31:16;14.10;99.90
19220;DHT22;9744;49.364;7.484;2022-10-31T02:33:51;14.30;99.90
19220;DHT22;9744;49.364;7.484;2022-10-31T02:36:24;14.50;99.90
19220;DHT22;9744;49.364;7.484;2022-10-31T02:39:02;14.50;99.90
19220;DHT22;9744;49.364;7.484;2022-10-31T02:41:46;14.30;99.90
19220;DHT22;9744;49.364;7.484;2022-10-31T02:44:19;14.20;99.90
19220;DHT22;9744;49.364;7.484;2022-10-31T02:46:53;14.10;99.90
19220;DHT22;9744;49.364;7.484;2022-10-31T02:49:26;14.00;99.90
19220;DHT22;9744;49.364;7.484;2022-10-31T02:51:55;14.00;99.90
19220;DHT22;9744;49.364;7.484;2022-10-31T02:54:24;14.00;99.90
19220;DHT22;9744;49.364;7.484;2022-10-31T02:56:58;13.90;99.90
19220;DHT22;9744;49.364;7.484;2022-10-31T02:59:27;14.00;99.90
19220;DHT22;9744;49.364;7.484;2022-10-31T03:02:09;13.90;99.90
19220;DHT22;9744;49.364;7.484;2022-10-31T03:07:41;14.00;99.90
19220;DHT22;9744;49.364;7.484;2022-10-31T03:10:16;14.30;99.90
19220;DHT22;9744;49.364;7.484;2022-10-31T03:12:50;14.50;99.90
19220;DHT22;9744;49.364;7.484;2022-10-31T03:15:24;14.80;99.90
19220;DHT22;9744;49.364;7.484;2022-10-31T03:17:57;15.00;99.90
19220;DHT22;9744;49.364;7.484;2022-10-31T03:20:30;15.10;99.90
19220;DHT22;9744;49.364;7.484;2022-10-31T03:23:01;15.30;99.90
19220;DHT22;9744;49.364;7.484;2022-10-31T03:25:30;15.40;99.90
19220;DHT22;9744;49.364;7.484;2022-10-31T03:28:00;15.50;99.90
19220;DHT22;9744;49.364;7.484;2022-10-31T03:30:31;15.50;99.90
19220;DHT22;9744;49.364;7.484;2022-10-31T03:33:03;15.50;99.90
19220;DHT22;9744;49.364;7.484;2022-10-31T03:35:33;15.60;99.90
19220;DHT22;9744;49.364;7.484;2022-10-31T03:38:03;15.60;99.90
19220;DHT22;9744;49.364;7.484;2022-10-31T03:40:35;15.70;99.90
19220;DHT22;9744;49.364;7.484;2022-10-31T03:43:06;15.60;99.90
19220;DHT22;9744;49.364;7.484;2022-10-31T03:45:39;15.70;99.90
19220;DHT22;9744;49.364;7.484;2022-10-31T03:48:10;15.70;99.90
19220;DHT22;9744;49.364;7.484;2022-10-31T03:50:40;15.70;99.90
19220;DHT22;9744;49.364;7.484;2022-10-31T03:53:14;15.60;99.90
19220;DHT22;9744;49.364;7.484;2022-10-31T03:55:49;15.60;99.90
19220;DHT22;9744;49.364;7.484;2022-10-31T03:58:20;15.50;99.90
19220;DHT22;9744;49.364;7.484;2022-10-31T04:00:51;15.50;99.90
19220;DHT22;9744;49.364;7.484;2022-10-31T04:03:23;15.50;99.90
19220;DHT22;9744;49.364;7.484;2022-10-31T04:05:55;15.40;99.90
19220;DHT22;9744;49.364;7.484;2022-10-31T04:08:26;15.40;99.90
19220;DHT22;9744;49.364;7.484;2022-10-31T04:10:56;15.30;99.90
19220;DHT22;9744;49.364;7.484;2022-10-31T04:13:27;15.30;99.90
19220;DHT22;9744;49.364;7.484;2022-10-31T04:16:03;15.40;99.90
19220;DHT22;9744;49.364;7.484;2022-10-31T04:18:33;15.40;99.90
19220;DHT22;9744;49.364;7.484;2022-10-31T04:21:05;15.40;99.90
19220;DHT22;9744;49.364;7.484;2022-10-31T04:23:33;15.50;99.90
19220;DHT22;9744;49.364;7.484;2022-10-31T04:26:09;15.50;99.90
19220;DHT22;9744;49.364;7.484;2022-10-31T04:28:37;15.40;99.90
19220;DHT22;9744;49.364;7.484;2022-10-31T04:31:05;15.40;99.90
19220;DHT22;9744;49.364;7.484;2022-10-31T04:33:37;15.30;99.90
19220;DHT22;9744;49.364;7.484;2022-10-31T04:36:05;15.30;99.90
19220;DHT22;9744;49.364;7.484;2022-10-31T04:38:33;15.30;99.90
19220;DHT22;9744;49.364;7.484;2022-10-31T04:41:02;15.30;99.90
19220;DHT22;9744;49.364;7.484;2022-10-31T04:43:46;15.40;99.90
19220;DHT22;9744;49.364;7.484;2022-10-31T04:46:13;15.30;99.90
19220;DHT22;9744;49.364;7.484;2022-10-31T04:48:42;15.30;99.90
19220;DHT22;9744;49.364;7.484;2022-10-31T04:51:10;15.30;99.90
19220;DHT22;9744;49.364;7.484;2022-10-31T04:53:38;15.30;99.90
19220;DHT22;9744;49.364;7.484;2022-10-31T04:56:24;15.30;99.90
19220;DHT22;9744;49.364;7.484;2022-10-31T04:58:56;15.30;99.90
19220;DHT22;9744;49.364;7.484;2022-10-31T05:01:25;15.30;99.90
19220;DHT22;9744;49.364;7.484;2022-10-31T05:03:55;15.30;99.90
19220;DHT22;9744;49.364;7.484;2022-10-31T05:06:23;15.30;99.90
19220;DHT22;9744;49.364;7.484;2022-10-31T05:08:50;15.30;99.90
19220;DHT22;9744;49.364;7.484;2022-10-31T05:11:19;15.30;99.90
19220;DHT22;9744;49.364;7.484;2022-10-31T05:13:46;15.30;99.90
19220;DHT22;9744;49.364;7.484;2022-10-31T05:16:13;15.30;99.90
19220;DHT22;9744;49.364;7.484;2022-10-31T05:19:17;15.20;99.90
19220;DHT22;9744;49.364;7.484;2022-10-31T05:22:03;15.20;99.90
19220;DHT22;9744;49.364;7.484;2022-10-31T05:24:32;15.10;99.90
19220;DHT22;9744;49.364;7.484;2022-10-31T05:26:59;15.00;99.90
19220;DHT22;9744;49.364;7.484;2022-10-31T05:29:27;14.90;99.90
19220;DHT22;9744;49.364;7.484;2022-10-31T05:31:54;14.90;99.90
19220;DHT22;9744;49.364;7.484;2022-10-31T05:34:43;14.80;99.90
19220;DHT22;9744;49.364;7.484;2022-10-31T05:37:36;14.80;99.90
19220;DHT22;9744;49.364;7.484;2022-10-31T05:40:06;14.70;99.90
19220;DHT22;9744;49.364;7.484;2022-10-31T05:42:34;14.80;99.90
19220;DHT22;9744;49.364;7.484;2022-10-31T05:45:03;14.80;99.90
19220;DHT22;9744;49.364;7.484;2022-10-31T05:47:51;14.80;99.90
19220;DHT22;9744;49.364;7.484;2022-10-31T05:50:58;14.60;99.90
19220;DHT22;9744;49.364;7.484;2022-10-31T05:53:25;14.60;99.90
19220;DHT22;9744;49.364;7.484;2022-10-31T05:55:52;14.50;99.90
19220;DHT22;9744;49.364;7.484;2022-10-31T05:58:21;14.60;99.90
19220;DHT22;9744;49.364;7.484;2022-10-31T06:00:57;14.60;99.90
19220;DHT22;9744;49.364;7.484;2022-10-31T06:03:24;14.70;99.90
19220;DHT22;9744;49.364;7.484;2022-10-31T06:06:00;14.80;99.90
19220;DHT22;9744;49.364;7.484;2022-10-31T06:08:36;14.80;99.90
19220;DHT22;9744;49.364;7.484;2022-10-31T06:11:07;14.80;99.90
19220;DHT22;9744;49.364;7.484;2022-10-31T06:13:53;14.80;99.90
19220;DHT22;9744;49.364;7.484;2022-10-31T06:16:24;14.80;99.90
19220;DHT22;9744;49.364;7.484;2022-10-31T06:18:54;14.80;99.90
19220;DHT22;9744;49.364;7.484;2022-10-31T06:21:22;14.70;99.90
19220;DHT22;9744;49.364;7.484;2022-10-31T06:23:50;14.50;99.90
19220;DHT22;9744;49.364;7.484;2022-10-31T06:26:44;14.40;99.90
19220;DHT22;9744;49.364;7.484;2022-10-31T06:29:12;14.50;99.90
19220;DHT22;9744;49.364;7.484;2022-10-31T06:31:59;14.60;99.90
19220;DHT22;9744;49.364;7.484;2022-10-31T06:34:27;14.60;99.90
19220;DHT22;9744;49.364;7.484;2022-10-31T06:36:56;14.60;99.90
19220;DHT22;9744;49.364;7.484;2022-10-31T06:39:25;14.60;99.90
19220;DHT22;9744;49.364;7.484;2022-10-31T06:41:52;14.60;99.90
19220;DHT22;9744;49.364;7.484;2022-10-31T06:44:21;14.70;99.90
19220;DHT22;9744;49.364;7.484;2022-10-31T06:47:14;14.70;99.90
19220;DHT22;9744;49.364;7.484;2022-10-31T06:49:53;14.70;99.90
19220;DHT22;9744;49.364;7.484;2022-10-31T06:52:23;14.70;99.90
19220;DHT22;9744;49.364;7.484;2022-10-31T06:54:54;14.70;99.90
19220;DHT22;9744;49.364;7.484;2022-10-31T06:57:22;14.60;99.90
19220;DHT22;9744;49.364;7.484;2022-10-31T06:59:49;14.60;99.90
19220;DHT22;9744;49.364;7.484;2022-10-31T07:02:36;14.80;99.90
19220;DHT22;9744;49.364;7.484;2022-10-31T07:05:05;14.90;99.90
19220;DHT22;9744;49.364;7.484;2022-10-31T07:07:34;14.90;99.90
19220;DHT22;9744;49.364;7.484;2022-10-31T07:10:02;15.00;99.90
19220;DHT22;9744;49.364;7.484;2022-10-31T07:12:42;15.10;99.90
19220;DHT22;9744;49.364;7.484;2022-10-31T07:15:10;15.10;99.90
19220;DHT22;9744;49.364;7.484;2022-10-31T07:17:37;15.10;99.90
19220;DHT22;9744;49.364;7.484;2022-10-31T07:20:05;15.20;99.90
19220;DHT22;9744;49.364;7.484;2022-10-31T07:22:35;15.20;99.90
19220;DHT22;9744;49.364;7.484;2022-10-31T07:25:05;15.30;99.90
19220;DHT22;9744;49.364;7.484;2022-10-31T07:27:36;15.30;99.90
19220;DHT22;9744;49.364;7.484;2022-10-31T07:30:05;15.30;99.90
19220;DHT22;9744;49.364;7.484;2022-10-31T07:32:39;15.30;99.90
19220;DHT22;9744;49.364;7.484;2022-10-31T07:35:07;15.30;99.90
19220;DHT22;9744;49.364;7.484;2022-10-31T07:37:47;15.40;99.90
19220;DHT22;9744;49.364;7.484;2022-10-31T07:40:15;15.40;99.90
19220;DHT22;9744;49.364;7.484;2022-10-31T07:42:45;15.50;99.90
19220;DHT22;9744;49.364;7.484;2022-10-31T07:45:33;15.50;99.90
19220;DHT22;9744;49.364;7.484;2022-10-31T07:48:23;15.60;99.90
19220;DHT22;9744;49.364;7.484;2022-10-31T07:51:08;15.60;99.90
19220;DHT22;9744;49.364;7.484;2022-10-31T07:53:55;15.60;99.90
19220;DHT22;9744;49.364;7.484;2022-10-31T07:56:27;15.60;99.90
19220;DHT22;9744;49.364;7.484;2022-10-31T07:58:54;15.70;99.90
19220;DHT22;9744;49.364;7.484;2022-10-31T08:01:22;15.70;99.90
19220;DHT22;9744;49.364;7.484;2022-10-31T08:04:09;15.70;99.90
19220;DHT22;9744;49.364;7.484;2022-10-31T08:06:59;15.80;99.90
19220;DHT22;9744;49.364;7.484;2022-10-31T08:09:32;15.80;99.90
19220;DHT22;9744;49.364;7.484;2022-10-31T08:12:04;15.90;99.90
19220;DHT22;9744;49.364;7.484;2022-10-31T08:14:35;15.90;99.90
19220;DHT22;9744;49.364;7.484;2022-10-31T08:17:02;15.90;99.90
19220;DHT22;9744;49.364;7.484;2022-10-31T08:19:39;16.00;99.90
19220;DHT22;9744;49.364;7.484;2022-10-31T08:22:09;16.00;99.90
19220;DHT22;9744;49.364;7.484;2022-10-31T08:24:38;16.00;99.90
19220;DHT22;9744;49.364;7.484;2022-10-31T08:27:05;16.10;99.90
19220;DHT22;9744;49.364;7.484;2022-10-31T08:29:32;16.10;99.90
19220;DHT22;9744;49.364;7.484;2022-10-31T08:32:00;16.10;99.90
19220;DHT22;9744;49.364;7.484;2022-10-31T08:34:46;16.20;99.90
19220;DHT22;9744;49.364;7.484;2022-10-31T08:37:39;16.20;99.90
19220;DHT22;9744;49.364;7.484;2022-10-31T08:40:09;16.30;99.90
19220;DHT22;9744;49.364;7.484;2022-10-31T08:42:36;16.30;99.90
19220;DHT22;9744;49.364;7.484;2022-10-31T08:45:04;16.30;99.90
19220;DHT22;9744;49.364;7.484;2022-10-31T08:47:32;16.40;99.90
19220;DHT22;9744;49.364;7.484;2022-10-31T08:49:59;16.40;99.90
19220;DHT22;9744;49.364;7.484;2022-10-31T08:52:28;16.40;99.90
19220;DHT22;9744;49.364;7.484;2022-10-31T08:55:00;16.50;99.90
19220;DHT22;9744;49.364;7.484;2022-10-31T08:58:01;16.50;99.90
19220;DHT22;9744;49.364;7.484;2022-10-31T09:00:37;16.50;99.90
19220;DHT22;9744;49.364;7.484;2022-10-31T09:03:16;16.60;99.90
19220;DHT22;9744;49.364;7.484;2022-10-31T09:05:43;16.70;99.90
19220;DHT22;9744;49.364;7.484;2022-10-31T09:08:12;16.70;99.90
19220;DHT22;9744;49.364;7.484;2022-10-31T09:10:40;16.80;99.90
19220;DHT22;9744;49.364;7.484;2022-10-31T09:13:11;16.80;99.90
19220;DHT22;9744;49.364;7.484;2022-10-31T09:15:58;16.90;99.90
19220;DHT22;9744;49.364;7.484;2022-10-31T09:18:26;16.90;99.90
19220;DHT22;9744;49.364;7.484;2022-10-31T09:20:58;17.00;99.90
19220;DHT22;9744;49.364;7.484;2022-10-31T09:23:27;17.10;99.90
19220;DHT22;9744;49.364;7.484;2022-10-31T09:25:54;17.10;99.90
19220;DHT22;9744;49.364;7.484;2022-10-31T09:28:46;17.20;99.90
19220;DHT22;9744;49.364;7.484;2022-10-31T09:31:16;17.30;99.90
19220;DHT22;9744;49.364;7.484;2022-10-31T09:33:49;17.40;99.90
19220;DHT22;9744;49.364;7.484;2022-10-31T09:36:35;17.40;99.90
19220;DHT22;9744;49.364;7.484;2022-10-31T09:39:04;17.50;99.90
19220;DHT22;9744;49.364;7.484;2022-10-31T09:41:47;17.60;99.90
19220;DHT22;9744;49.364;7.484;2022-10-31T09:44:25;17.60;99.90
19220;DHT22;9744;49.364;7.484;2022-10-31T09:47:00;17.70;99.90
19220;DHT22;9744;49.364;7.484;2022-10-31T09:49:42;17.80;99.90
19220;DHT22;9744;49.364;7.484;2022-10-31T09:52:22;17.80;99.90
19220;DHT22;9744;49.364;7.484;2022-10-31T09:54:53;17.90;99.90
19220;DHT22;9744;49.364;7.484;2022-10-31T09:57:25;18.00;99.90
19220;DHT22;9744;49.364;7.484;2022-10-31T09:59:55;18.10;99.90
19220;DHT22;9744;49.364;7.484;2022-10-31T10:02:29;18.20;99.90
19220;DHT22;9744;49.364;7.484;2022-10-31T10:04:59;18.30;99.90
19220;DHT22;9744;49.364;7.484;2022-10-31T10:07:35;18.30;99.90
19220;DHT22;9744;49.364;7.484;2022-10-31T10:10:31;18.40;99.90
19220;DHT22;9744;49.364;7.484;2022-10-31T10:13:54;18.40;99.90
19220;DHT22;9744;49.364;7.484;2022-10-31T10:16:36;18.40;99.90
19220;DHT22;9744;49.364;7.484;2022-10-31T10:19:21;18.50;99.90
19220;DHT22;9744;49.364;7.484;2022-10-31T10:21:54;18.50;99.90
19220;DHT22;9744;49.364;7.484;2022-10-31T10:24:30;18.60;99.90
19220;DHT22;9744;49.364;7.484;2022-10-31T10:27:09;18.60;99.90
19220;DHT22;9744;49.364;7.484;2022-10-31T10:29:40;18.60;99.90
19220;DHT22;9744;49.364;7.484;2022-10-31T10:32:17;18.70;99.90
19220;DHT22;9744;49.364;7.484;2022-10-31T10:34:50;18.80;99.90
19220;DHT22;9744;49.364;7.484;2022-10-31T10:37:25;18.90;99.90
19220;DHT22;9744;49.364;7.484;2022-10-31T10:39:59;18.90;99.90
19220;DHT22;9744;49.364;7.484;2022-10-31T10:42:27;19.00;99.90
19220;DHT22;9744;49.364;7.484;2022-10-31T10:45:17;19.00;99.90
19220;DHT22;9744;49.364;7.484;2022-10-31T10:48:16;19.10;99.90
19220;DHT22;9744;49.364;7.484;2022-10-31T10:50:49;19.20;99.90
19220;DHT22;9744;49.364;7.484;2022-10-31T10:53:25;19.30;99.90
19220;DHT22;9744;49.364;7.484;2022-10-31T10:56:10;19.50;99.90
19220;DHT22;9744;49.364;7.484;2022-10-31T10:58:39;19.60;99.90
19220;DHT22;9744;49.364;7.484;2022-10-31T11:01:11;19.70;99.90
19220;DHT22;9744;49.364;7.484;2022-10-31T11:03:40;19.80;99.90
19220;DHT22;9744;49.364;7.484;2022-10-31T11:06:17;19.90;99.90
19220;DHT22;9744;49.364;7.484;2022-10-31T11:08:47;20.00;99.90
19220;DHT22;9744;49.364;7.484;2022-10-31T11:11:23;20.00;99.90
19220;DHT22;9744;49.364;7.484;2022-10-31T11:13:57;20.10;99.90
19220;DHT22;9744;49.364;7.484;2022-10-31T11:16:30;20.10;99.90
19220;DHT22;9744;49.364;7.484;2022-10-31T11:19:08;20.20;99.90
19220;DHT22;9744;49.364;7.484;2022-10-31T11:21:41;20.20;99.90
19220;DHT22;9744;49.364;7.484;2022-10-31T11:24:14;20.20;99.90
19220;DHT22;9744;49.364;7.484;2022-10-31T11:26:43;20.20;99.90
19220;DHT22;9744;49.364;7.484;2022-10-31T11:29:19;20.20;99.90
19220;DHT22;9744;49.364;7.484;2022-10-31T11:31:49;20.30;99.90
19220;DHT22;9744;49.364;7.484;2022-10-31T11:34:26;20.30;99.90
19220;DHT22;9744;49.364;7.484;2022-10-31T11:36:56;20.30;99.90
19220;DHT22;9744;49.364;7.484;2022-10-31T11:39:26;20.30;99.90
19220;DHT22;9744;49.364;7.484;2022-10-31T11:41:54;20.30;99.90
19220;DHT22;9744;49.364;7.484;2022-10-31T11:44:24;20.30;99.90
19220;DHT22;9744;49.364;7.484;2022-10-31T11:46:55;20.30;99.90
19220;DHT22;9744;49.364;7.484;2022-10-31T11:49:32;20.40;99.90
19220;DHT22;9744;49.364;7.484;2022-10-31T11:52:06;20.40;99.90
19220;DHT22;9744;49.364;7.484;2022-10-31T11:54:39;20.40;99.90
19220;DHT22;9744;49.364;7.484;2022-10-31T11:57:25;20.30;99.90
19220;DHT22;9744;49.364;7.484;2022-10-31T11:59:53;20.20;99.90
19220;DHT22;9744;49.364;7.484;2022-10-31T12:02:22;20.00;99.90
19220;DHT22;9744;49.364;7.484;2022-10-31T12:04:56;19.90;99.90
19220;DHT22;9744;49.364;7.484;2022-10-31T12:07:25;19.80;99.90
19220;DHT22;9744;49.364;7.484;2022-10-31T12:09:52;19.90;99.90
19220;DHT22;9744;49.364;7.484;2022-10-31T12:12:44;20.00;99.90
19220;DHT22;9744;49.364;7.484;2022-10-31T12:15:36;20.00;99.90
19220;DHT22;9744;49.364;7.484;2022-10-31T12:18:46;20.10;99.90
19220;DHT22;9744;49.364;7.484;2022-10-31T12:21:38;20.10;99.90
19220;DHT22;9744;49.364;7.484;2022-10-31T12:24:15;20.10;99.90
19220;DHT22;9744;49.364;7.484;2022-10-31T12:26:50;20.00;99.90
19220;DHT22;9744;49.364;7.484;2022-10-31T12:29:37;20.00;99.90
19220;DHT22;9744;49.364;7.484;2022-10-31T12:32:23;20.10;99.90
19220;DHT22;9744;49.364;7.484;2022-10-31T12:35:08;20.00;99.90
19220;DHT22;9744;49.364;7.484;2022-10-31T12:37:50;19.70;99.90
19220;DHT22;9744;49.364;7.484;2022-10-31T12:40:41;19.30;99.90
19220;DHT22;9744;49.364;7.484;2022-10-31T12:43:20;19.20;99.90
19220;DHT22;9744;49.364;7.484;2022-10-31T12:45:54;19.30;99.90
19220;DHT22;9744;49.364;7.484;2022-10-31T12:48:46;19.30;99.90
19220;DHT22;9744;49.364;7.484;2022-10-31T12:51:21;19.40;99.90
19220;DHT22;9744;49.364;7.484;2022-10-31T12:54:09;19.40;99.90
19220;DHT22;9744;49.364;7.484;2022-10-31T12:56:47;19.50;99.90
19220;DHT22;9744;49.364;7.484;2022-10-31T12:59:21;19.60;99.90
19220;DHT22;9744;49.364;7.484;2022-10-31T13:01:55;19.80;99.90
19220;DHT22;9744;49.364;7.484;2022-10-31T13:04:33;20.00;99.90
19220;DHT22;9744;49.364;7.484;2022-10-31T13:07:04;20.50;99.90
19220;DHT22;9744;49.364;7.484;2022-10-31T13:09:38;20.90;99.90
19220;DHT22;9744;49.364;7.484;2022-10-31T13:12:10;21.30;99.90
19220;DHT22;9744;49.364;7.484;2022-10-31T13:14:41;21.70;99.90
19220;DHT22;9744;49.364;7.484;2022-10-31T13:17:15;22.10;99.90
19220;DHT22;9744;49.364;7.484;2022-10-31T13:19:47;22.10;99.90
19220;DHT22;9744;49.364;7.484;2022-10-31T13:22:17;22.40;99.90
19220;DHT22;9744;49.364;7.484;2022-10-31T13:24:54;22.50;99.90
19220;DHT22;9744;49.364;7.484;2022-10-31T13:27:24;22.60;99.90
19220;DHT22;9744;49.364;7.484;2022-10-31T13:29:59;22.60;99.90
19220;DHT22;9744;49.364;7.484;2022-10-31T13:32:30;22.70;99.90
19220;DHT22;9744;49.364;7.484;2022-10-31T13:35:03;22.80;99.90
19220;DHT22;9744;49.364;7.484;2022-10-31T13:37:36;22.80;99.90
19220;DHT22;9744;49.364;7.484;2022-10-31T13:40:14;22.60;99.90
19220;DHT22;9744;49.364;7.484;2022-10-31T13:42:53;22.40;99.90
19220;DHT22;9744;49.364;7.484;2022-10-31T13:45:24;22.30;99.90
19220;DHT22;9744;49.364;7.484;2022-10-31T13:47:56;22.10;99.90
19220;DHT22;9744;49.364;7.484;2022-10-31T13:50:25;21.90;99.90
19220;DHT22;9744;49.364;7.484;2022-10-31T13:53:09;21.70;99.90
19220;DHT22;9744;49.364;7.484;2022-10-31T13:55:41;21.50;99.90
19220;DHT22;9744;49.364;7.484;2022-10-31T13:58:26;21.40;99.90
19220;DHT22;9744;49.364;7.484;2022-10-31T14:01:11;21.30;99.90
19220;DHT22;9744;49.364;7.484;2022-10-31T14:03:41;21.10;99.90
19220;DHT22;9744;49.364;7.484;2022-10-31T14:06:10;20.90;99.90
19220;DHT22;9744;49.364;7.484;2022-10-31T14:08:40;20.70;99.90
19220;DHT22;9744;49.364;7.484;2022-10-31T14:11:21;20.60;99.90
19220;DHT22;9744;49.364;7.484;2022-10-31T14:13:50;20.60;99.90
19220;DHT22;9744;49.364;7.484;2022-10-31T14:16:20;20.60;99.90
19220;DHT22;9744;49.364;7.484;2022-10-31T14:18:50;20.50;99.90
19220;DHT22;9744;49.364;7.484;2022-10-31T14:21:30;20.50;99.90
19220;DHT22;9744;49.364;7.484;2022-10-31T14:23:57;20.40;99.90
19220;DHT22;9744;49.364;7.484;2022-10-31T14:26:36;20.40;99.90
19220;DHT22;9744;49.364;7.484;2022-10-31T14:29:24;20.40;99.90
19220;DHT22;9744;49.364;7.484;2022-10-31T14:34:41;20.30;99.90
19220;DHT22;9744;49.364;7.484;2022-10-31T14:37:24;20.20;99.90
19220;DHT22;9744;49.364;7.484;2022-10-31T14:40:02;20.20;99.90
19220;DHT22;9744;49.364;7.484;2022-10-31T14:42:41;20.20;99.90
19220;DHT22;9744;49.364;7.484;2022-10-31T14:45:31;20.20;99.90
19220;DHT22;9744;49.364;7.484;2022-10-31T14:48:11;20.20;99.90
19220;DHT22;9744;49.364;7.484;2022-10-31T14:50:48;20.20;99.90
19220;DHT22;9744;49.364;7.484;2022-10-31T14:53:20;20.20;99.90
19220;DHT22;9744;49.364;7.484;2022-10-31T14:55:51;20.20;99.90
19220;DHT22;9744;49.364;7.484;2022-10-31T14:58:23;20.30;99.90
19220;DHT22;9744;49.364;7.484;2022-10-31T15:00:56;20.20;99.90
19220;DHT22;9744;49.364;7.484;2022-10-31T15:03:27;20.20;99.90
19220;DHT22;9744;49.364;7.484;2022-10-31T15:06:00;20.30;99.90
19220;DHT22;9744;49.364;7.484;2022-10-31T15:08:34;20.30;99.90
19220;DHT22;9744;49.364;7.484;2022-10-31T15:11:12;20.30;99.90
19220;DHT22;9744;49.364;7.484;2022-10-31T15:13:46;20.20;99.90
19220;DHT22;9744;49.364;7.484;2022-10-31T15:16:15;20.20;99.90
19220;DHT22;9744;49.364;7.484;2022-10-31T15:18:51;20.20;99.90
19220;DHT22;9744;49.364;7.484;2022-10-31T15:21:20;20.20;99.90
19220;DHT22;9744;49.364;7.484;2022-10-31T15:23:50;20.20;99.90
19220;DHT22;9744;49.364;7.484;2022-10-31T15:26:20;20.20;99.90
19220;DHT22;9744;49.364;7.484;2022-10-31T15:28:59;20.20;99.90
19220;DHT22;9744;49.364;7.484;2022-10-31T15:31:28;20.20;99.90
19220;DHT22;9744;49.364;7.484;2022-10-31T15:33:59;20.10;99.90
19220;DHT22;9744;49.364;7.484;2022-10-31T15:36:26;20.10;99.90
19220;DHT22;9744;49.364;7.484;2022-10-31T15:38:55;20.10;99.90
19220;DHT22;9744;49.364;7.484;2022-10-31T15:41:28;20.10;99.90
19220;DHT22;9744;49.364;7.484;2022-10-31T15:44:02;20.00;99.90
19220;DHT22;9744;49.364;7.484;2022-10-31T15:46:30;19.90;99.90
19220;DHT22;9744;49.364;7.484;2022-10-31T15:49:00;19.70;99.90
19220;DHT22;9744;49.364;7.484;2022-10-31T15:51:29;19.40;99.90
19220;DHT22;9744;49.364;7.484;2022-10-31T15:53:58;19.00;99.90
19220;DHT22;9744;49.364;7.484;2022-10-31T15:56:28;18.70;99.90
19220;DHT22;9744;49.364;7.484;2022-10-31T15:58:59;18.30;99.90
19220;DHT22;9744;49.364;7.484;2022-10-31T16:01:30;18.00;99.90
19220;DHT22;9744;49.364;7.484;2022-10-31T16:03:59;17.90;99.90
19220;DHT22;9744;49.364;7.484;2022-10-31T16:06:27;17.60;99.90
19220;DHT22;9744;49.364;7.484;2022-10-31T16:08:55;17.50;99.90
19220;DHT22;9744;49.364;7.484;2022-10-31T16:11:27;17.40;99.90
19220;DHT22;9744;49.364;7.484;2022-10-31T16:14:01;17.30;99.90
19220;DHT22;9744;49.364;7.484;2022-10-31T16:16:31;17.30;99.90
19220;DHT22;9744;49.364;7.484;2022-10-31T16:18:59;17.30;99.90
19220;DHT22;9744;49.364;7.484;2022-10-31T16:21:30;17.20;99.90
19220;DHT22;9744;49.364;7.484;2022-10-31T16:24:01;17.10;99.90
19220;DHT22;9744;49.364;7.484;2022-10-31T16:26:29;16.90;99.90
19220;DHT22;9744;49.364;7.484;2022-10-31T16:28:57;16.80;99.90
19220;DHT22;9744;49.364;7.484;2022-10-31T16:31:39;16.70;99.90